createdAt,value
2017-08-21T00:00:24.389Z,3.95
2017-08-21T00:02:53.277Z,2.35
2017-08-21T00:05:22.131Z,4.22
2017-08-21T00:07:51.694Z,3.53
2017-08-21T00:10:20.592Z,3.80
2017-08-21T00:12:49.469Z,3.50
2017-08-21T00:15:18.342Z,4.57
2017-08-21T00:17:47.244Z,3.97
2017-08-21T00:20:16.907Z,3.65
2017-08-21T00:22:46.810Z,4.05
2017-08-21T00:25:15.704Z,3.47
2017-08-21T00:27:44.594Z,3.15
2017-08-21T00:30:13.499Z,3.95
2017-08-21T00:32:42.374Z,3.45
2017-08-21T00:35:11.260Z,3.85
2017-08-21T00:37:40.235Z,3.90
2017-08-21T00:40:09.144Z,4.50
2017-08-21T00:42:38.026Z,4.45
2017-08-21T00:45:06.908Z,3.95
2017-08-21T00:47:35.445Z,4.22
2017-08-21T00:50:04.333Z,3.60
2017-08-21T00:52:32.878Z,3.60
2017-08-21T00:55:01.774Z,5.32
2017-08-21T00:57:30.670Z,3.50
2017-08-21T00:59:59.596Z,4.78
2017-08-21T01:02:28.486Z,3.97
2017-08-21T01:04:57.340Z,4.25
2017-08-21T01:07:27.154Z,3.40
2017-08-21T01:09:56.048Z,4.18
2017-08-21T01:12:24.931Z,3.87
2017-08-21T01:14:53.800Z,3.90
2017-08-21T01:17:22.693Z,3.95
2017-08-21T01:19:52.012Z,3.90
2017-08-21T01:22:20.893Z,3.55
2017-08-21T01:24:49.745Z,3.03
2017-08-21T01:27:18.637Z,3.85
2017-08-21T01:29:47.534Z,4.03
2017-08-21T01:32:16.426Z,3.53
2017-08-21T01:34:45.563Z,3.58
2017-08-21T01:37:14.461Z,3.80
2017-08-21T01:39:43.340Z,3.42
2017-08-21T01:42:12.232Z,3.85
2017-08-21T01:44:41.108Z,3.50
2017-08-21T01:47:09.993Z,3.42
2017-08-21T01:49:39.656Z,3.92
2017-08-21T01:52:08.727Z,3.12
2017-08-21T01:54:37.633Z,3.20
2017-08-21T01:57:06.533Z,3.60
2017-08-21T01:59:35.405Z,3.53
2017-08-21T02:02:04.291Z,3.85
2017-08-21T02:04:33.184Z,4.10
2017-08-21T02:07:02.080Z,4.00
2017-08-21T02:09:30.967Z,4.05
2017-08-21T02:11:59.865Z,3.90
2017-08-21T02:14:28.755Z,3.42
2017-08-21T02:16:57.642Z,3.67
2017-08-21T02:19:26.494Z,3.75
2017-08-21T02:21:55.370Z,3.50
2017-08-21T02:24:25.130Z,3.55
2017-08-21T02:26:54.499Z,3.35
2017-08-21T02:29:23.401Z,3.60
2017-08-21T02:31:52.291Z,3.28
2017-08-21T02:34:21.950Z,3.90
2017-08-21T02:36:50.803Z,4.60
2017-08-21T02:39:19.702Z,3.50
2017-08-21T02:41:48.604Z,3.70
2017-08-21T02:44:17.493Z,3.53
2017-08-21T02:46:46.383Z,3.35
2017-08-21T02:49:15.266Z,3.70
2017-08-21T02:51:44.126Z,4.12
2017-08-21T02:54:13.015Z,3.62
2017-08-21T02:56:41.863Z,4.35
2017-08-21T02:59:10.791Z,4.50
2017-08-21T03:01:39.682Z,3.90
2017-08-21T03:04:08.583Z,4.05
2017-08-21T03:06:37.428Z,3.58
2017-08-21T03:09:06.287Z,4.12
2017-08-21T03:11:35.193Z,3.53
2017-08-21T03:14:04.076Z,4.20
2017-08-21T03:16:32.974Z,3.15
2017-08-21T03:19:01.862Z,3.55
2017-08-21T03:21:31.527Z,3.42
2017-08-21T03:24:00.411Z,3.65
2017-08-21T03:26:29.277Z,3.58
2017-08-21T03:28:58.166Z,2.87
2017-08-21T03:31:27.030Z,3.80
2017-08-21T03:33:56.677Z,3.97
2017-08-21T03:36:25.527Z,3.83
2017-08-21T03:38:55.183Z,3.55
2017-08-21T03:41:24.083Z,3.35
2017-08-21T03:43:52.963Z,3.85
2017-08-21T03:46:23.610Z,4.28
2017-08-21T03:48:52.485Z,3.92
2017-08-21T03:51:21.373Z,4.30
2017-08-21T03:53:50.270Z,3.65
2017-08-21T03:56:19.131Z,4.40
2017-08-21T03:58:47.995Z,3.95
2017-08-21T04:01:16.879Z,3.40
2017-08-21T04:03:45.770Z,2.80
2017-08-21T04:06:14.622Z,3.35
2017-08-21T04:08:43.523Z,3.90
2017-08-21T04:11:12.415Z,3.12
2017-08-21T04:13:42.183Z,4.22
2017-08-21T04:16:11.075Z,3.65
2017-08-21T04:18:41.568Z,3.00
2017-08-21T04:21:10.453Z,4.10
2017-08-21T04:23:39.345Z,3.53
2017-08-21T04:26:08.252Z,4.15
2017-08-21T04:28:37.152Z,4.00
2017-08-21T04:31:07.038Z,3.40
2017-08-21T04:33:36.660Z,3.80
2017-08-21T04:36:05.556Z,3.60
2017-08-21T04:38:34.415Z,4.20
2017-08-21T04:41:04.317Z,4.00
2017-08-21T04:43:33.214Z,3.78
2017-08-21T04:46:03.090Z,3.85
2017-08-21T04:48:31.977Z,3.53
2017-08-21T04:51:00.914Z,3.85
2017-08-21T04:53:29.817Z,4.35
2017-08-21T04:55:58.700Z,4.10
2017-08-21T04:58:27.599Z,4.30
2017-08-21T05:00:56.522Z,3.90
2017-08-21T05:03:25.400Z,4.20
2017-08-21T05:05:54.305Z,4.32
2017-08-21T05:08:23.190Z,4.45
2017-08-21T05:10:52.098Z,4.65
2017-08-21T05:13:20.956Z,4.35
2017-08-21T05:15:49.828Z,4.43
2017-08-21T05:18:18.732Z,4.53
2017-08-21T05:20:47.625Z,4.22
2017-08-21T05:23:16.520Z,4.97
2017-08-21T05:25:45.406Z,4.78
2017-08-21T05:28:14.294Z,5.20
2017-08-21T05:30:43.836Z,5.20
2017-08-21T05:33:12.730Z,4.60
2017-08-21T05:35:41.609Z,4.65
2017-08-21T05:38:10.507Z,4.93
2017-08-21T05:40:39.389Z,4.32
2017-08-21T05:43:08.281Z,4.68
2017-08-21T05:45:37.160Z,5.00
2017-08-21T05:51:10.322Z,4.93
2017-08-21T05:56:32.336Z,4.00
2017-08-21T05:59:01.999Z,3.80
2017-08-21T06:01:30.885Z,4.50
2017-08-21T06:03:59.744Z,4.00
2017-08-21T06:06:28.629Z,5.90
2017-08-21T06:08:57.513Z,4.18
2017-08-21T06:11:56.480Z,4.00
2017-08-21T06:14:25.330Z,4.47
2017-08-21T06:16:54.205Z,4.18
2017-08-21T06:19:23.090Z,4.07
2017-08-21T06:21:51.982Z,4.45
2017-08-21T06:24:20.713Z,4.80
2017-08-21T06:26:49.598Z,4.97
2017-08-21T06:29:18.477Z,4.37
2017-08-21T06:31:47.360Z,4.80
2017-08-21T06:34:16.221Z,3.65
2017-08-21T06:36:45.108Z,4.18
2017-08-21T06:39:13.986Z,3.95
2017-08-21T06:41:42.896Z,3.90
2017-08-21T06:44:11.802Z,4.65
2017-08-21T06:46:40.729Z,3.85
2017-08-21T06:49:10.267Z,4.72
2017-08-21T06:51:39.168Z,4.20
2017-08-21T06:54:08.058Z,3.80
2017-08-21T06:56:36.946Z,4.32
2017-08-21T06:59:05.837Z,3.45
2017-08-21T07:01:34.728Z,3.10
2017-08-21T07:04:03.621Z,3.50
2017-08-21T07:06:32.488Z,3.33
2017-08-21T07:09:01.373Z,3.25
2017-08-21T07:11:30.263Z,3.30
2017-08-21T07:13:59.118Z,3.12
2017-08-21T07:16:28.017Z,3.95
2017-08-21T07:18:57.677Z,3.55
2017-08-21T07:21:26.533Z,3.40
2017-08-21T07:23:55.406Z,3.42
2017-08-21T07:26:24.290Z,4.28
2017-08-21T07:28:53.182Z,3.53
2017-08-21T07:31:22.117Z,3.58
2017-08-21T07:33:50.955Z,4.00
2017-08-21T07:36:19.905Z,4.05
2017-08-21T07:38:48.829Z,4.97
2017-08-21T07:41:17.722Z,3.55
2017-08-21T07:43:46.595Z,4.05
2017-08-21T07:46:15.476Z,3.33
2017-08-21T07:48:44.367Z,3.53
2017-08-21T07:51:14.027Z,4.25
2017-08-21T07:53:42.871Z,3.33
2017-08-21T07:56:11.752Z,2.85
2017-08-21T07:58:40.646Z,3.00
2017-08-21T08:01:10.322Z,3.30
2017-08-21T08:03:39.196Z,2.70
2017-08-21T08:06:08.154Z,3.42
2017-08-21T08:08:37.046Z,2.83
2017-08-21T08:11:05.932Z,3.03
2017-08-21T08:13:34.826Z,2.95
2017-08-21T08:16:03.529Z,2.83
2017-08-21T08:18:32.413Z,3.17
2017-08-21T08:21:01.299Z,2.40
2017-08-21T08:23:30.180Z,2.30
2017-08-21T08:25:59.067Z,2.60
2017-08-21T08:28:27.942Z,2.45
2017-08-21T08:30:56.841Z,2.30
2017-08-21T08:33:25.721Z,1.92
2017-08-21T08:35:54.612Z,2.72
2017-08-21T08:38:23.506Z,3.00
2017-08-21T08:40:52.387Z,2.10
2017-08-21T08:43:21.278Z,4.60
2017-08-21T08:45:50.173Z,2.20
2017-08-21T08:48:19.069Z,2.05
2017-08-21T08:50:47.974Z,2.17
2017-08-21T08:53:16.852Z,2.12
2017-08-21T08:55:45.738Z,1.95
2017-08-21T08:58:14.626Z,2.08
2017-08-21T09:00:44.288Z,2.00
2017-08-21T09:03:13.199Z,1.92
2017-08-21T09:05:42.103Z,2.87
2017-08-21T09:08:10.999Z,1.80
2017-08-21T09:10:39.890Z,3.08
2017-08-21T09:13:08.776Z,2.05
2017-08-21T09:15:37.674Z,2.08
2017-08-21T09:18:06.532Z,2.28
2017-08-21T09:20:35.411Z,2.15
2017-08-21T09:23:04.285Z,2.03
2017-08-21T09:25:33.144Z,2.15
2017-08-21T09:28:01.991Z,1.92
2017-08-21T09:30:30.877Z,1.60
2017-08-21T09:32:59.797Z,1.35
2017-08-21T09:35:29.336Z,2.20
2017-08-21T09:37:58.230Z,2.10
2017-08-21T09:40:27.119Z,2.10
2017-08-21T09:42:56.018Z,2.40
2017-08-21T09:45:24.876Z,2.00
2017-08-21T09:47:53.777Z,1.83
2017-08-21T09:50:22.671Z,1.85
2017-08-21T09:52:51.569Z,2.10
2017-08-21T09:55:20.448Z,2.45
2017-08-21T09:57:49.345Z,1.60
2017-08-21T10:00:17.537Z,1.70
2017-08-21T10:02:46.431Z,2.00
2017-08-21T10:05:15.312Z,2.95
2017-08-21T10:07:44.205Z,2.53
2017-08-21T10:10:13.046Z,2.25
2017-08-21T10:12:41.942Z,2.40
2017-08-21T10:15:10.834Z,1.77
2017-08-21T10:17:39.715Z,2.25
2017-08-21T10:20:08.601Z,1.45
2017-08-21T10:22:37.500Z,2.00
2017-08-21T10:25:06.397Z,1.92
2017-08-21T10:27:35.264Z,2.05
2017-08-21T10:30:04.930Z,1.77
2017-08-21T10:32:33.819Z,1.83
2017-08-21T10:35:02.722Z,2.15
2017-08-21T10:37:31.601Z,2.15
2017-08-21T10:40:00.484Z,2.12
2017-08-21T10:42:29.379Z,2.00
2017-08-21T10:44:58.350Z,2.72
2017-08-21T10:47:27.240Z,2.40
2017-08-21T10:49:56.287Z,2.30
2017-08-21T10:52:25.168Z,2.17
2017-08-21T10:54:54.052Z,2.00
2017-08-21T10:57:22.946Z,2.40
2017-08-21T10:59:51.842Z,2.15
2017-08-21T11:02:20.734Z,1.98
2017-08-21T11:04:49.639Z,1.75
2017-08-21T11:07:18.521Z,1.90
2017-08-21T11:09:47.405Z,1.73
2017-08-21T11:12:16.265Z,1.83
2017-08-21T11:14:45.152Z,1.70
2017-08-21T11:17:14.048Z,2.10
2017-08-21T11:19:42.933Z,2.17
2017-08-21T11:22:11.822Z,1.62
2017-08-21T11:24:40.712Z,1.42
2017-08-21T11:27:09.593Z,1.87
2017-08-21T11:29:38.486Z,1.60
2017-08-21T11:32:07.377Z,1.85
2017-08-21T11:34:37.036Z,1.87
2017-08-21T11:37:05.901Z,2.10
2017-08-21T11:39:34.789Z,1.67
2017-08-21T11:42:03.677Z,1.90
2017-08-21T11:44:32.568Z,2.08
2017-08-21T11:47:01.467Z,2.28
2017-08-21T11:49:30.362Z,2.00
2017-08-21T11:51:59.241Z,1.80
2017-08-21T11:54:28.137Z,1.55
2017-08-21T11:56:57.030Z,1.87
2017-08-21T11:59:25.733Z,2.20
2017-08-21T12:01:54.639Z,2.55
2017-08-21T12:04:23.538Z,1.62
2017-08-21T12:06:52.420Z,1.12
2017-08-21T12:09:21.322Z,1.70
2017-08-21T12:11:50.217Z,1.85
2017-08-21T12:14:19.109Z,2.10
2017-08-21T12:16:48.002Z,1.83
2017-08-21T12:19:16.893Z,1.85
2017-08-21T12:21:45.825Z,1.40
2017-08-21T12:24:14.719Z,2.30
2017-08-21T12:26:43.610Z,1.60
2017-08-21T12:29:12.492Z,2.10
2017-08-21T12:31:41.391Z,2.05
2017-08-21T12:34:11.011Z,1.50
2017-08-21T12:36:39.889Z,1.30
2017-08-21T12:39:08.780Z,1.52
2017-08-21T12:41:37.672Z,2.30
2017-08-21T12:44:07.342Z,2.42
2017-08-21T12:46:36.049Z,2.15
2017-08-21T12:49:04.968Z,1.50
2017-08-21T12:51:33.848Z,1.50
2017-08-21T12:54:02.707Z,1.87
2017-08-21T12:56:31.604Z,1.40
2017-08-21T12:59:00.448Z,1.85
2017-08-21T13:01:29.335Z,1.40
2017-08-21T13:03:58.216Z,1.65
2017-08-21T13:06:27.101Z,1.35
2017-08-21T13:08:55.998Z,1.40
2017-08-21T13:11:24.843Z,1.95
2017-08-21T13:13:53.734Z,1.30
2017-08-21T13:16:22.636Z,1.15
2017-08-21T13:18:51.525Z,1.60
2017-08-21T13:21:20.422Z,1.75
2017-08-21T13:23:49.306Z,1.83
2017-08-21T13:26:18.197Z,1.80
2017-08-21T13:28:47.051Z,1.75
2017-08-21T13:31:15.930Z,1.73
2017-08-21T13:33:44.810Z,1.45
2017-08-21T13:36:13.713Z,1.58
2017-08-21T13:38:42.592Z,1.40
2017-08-21T13:41:11.476Z,1.90
2017-08-21T13:43:40.378Z,1.95
2017-08-21T13:46:09.259Z,1.50
2017-08-21T13:48:38.108Z,2.08
2017-08-21T13:51:06.984Z,1.80
2017-08-21T13:53:35.868Z,1.55
2017-08-21T13:56:04.763Z,1.85
2017-08-21T13:58:33.638Z,1.67
2017-08-21T14:01:02.532Z,1.58
2017-08-21T14:03:32.433Z,1.45
2017-08-21T14:06:02.100Z,1.23
2017-08-21T14:08:31.010Z,1.45
2017-08-21T14:10:59.894Z,2.20
2017-08-21T14:13:28.785Z,1.50
2017-08-21T14:15:57.687Z,1.60
2017-08-21T14:18:26.587Z,2.37
2017-08-21T14:20:55.480Z,1.70
2017-08-21T14:23:24.345Z,1.33
2017-08-21T14:25:53.233Z,1.60
2017-08-21T14:28:22.122Z,1.67
2017-08-21T14:30:51.004Z,1.20
2017-08-21T14:33:19.872Z,1.40
2017-08-21T14:35:48.729Z,1.80
2017-08-21T14:38:17.608Z,1.92
2017-08-21T14:40:46.494Z,1.60
2017-08-21T14:43:15.381Z,1.30
2017-08-21T14:45:44.274Z,1.30
2017-08-21T14:48:13.114Z,1.58
2017-08-21T14:50:42.003Z,1.80
2017-08-21T14:53:10.998Z,1.87
2017-08-21T14:55:39.886Z,1.20
2017-08-21T14:58:08.765Z,1.40
2017-08-21T15:00:37.669Z,1.25
2017-08-21T15:03:06.532Z,1.45
2017-08-21T15:05:35.421Z,1.75
2017-08-21T15:08:04.305Z,1.40
2017-08-21T15:10:33.194Z,1.10
2017-08-21T15:13:02.072Z,1.15
2017-08-21T15:15:30.958Z,1.40
2017-08-21T15:17:59.859Z,1.60
2017-08-21T15:20:28.759Z,1.23
2017-08-21T15:22:57.640Z,1.30
2017-08-21T15:25:26.525Z,1.00
2017-08-21T15:27:55.417Z,1.27
2017-08-21T15:30:24.386Z,0.90
2017-08-21T15:32:53.293Z,1.35
2017-08-21T15:35:23.200Z,1.00
2017-08-21T15:37:52.112Z,1.17
2017-08-21T15:40:21.000Z,1.30
2017-08-21T15:42:49.887Z,1.40
2017-08-21T15:45:18.782Z,2.10
2017-08-21T15:47:47.682Z,1.90
2017-08-21T15:50:16.581Z,1.90
2017-08-21T15:52:45.298Z,1.55
2017-08-21T15:55:14.183Z,1.52
2017-08-21T15:57:43.065Z,1.15
2017-08-21T16:00:11.958Z,1.65
2017-08-21T16:02:40.837Z,1.50
2017-08-21T16:05:09.688Z,1.30
2017-08-21T16:07:38.590Z,1.60
2017-08-21T16:10:07.470Z,1.20
2017-08-21T16:12:36.352Z,0.82
2017-08-21T16:15:05.237Z,1.15
2017-08-21T16:17:34.141Z,1.05
2017-08-21T16:20:03.039Z,1.15
2017-08-21T16:22:31.894Z,0.95
2017-08-21T16:25:00.787Z,2.08
2017-08-21T16:27:29.676Z,1.00
2017-08-21T16:29:58.568Z,1.08
2017-08-21T16:32:27.461Z,1.40
2017-08-21T16:34:56.353Z,1.50
2017-08-21T16:37:25.232Z,1.17
2017-08-21T16:39:54.116Z,1.33
2017-08-21T16:42:23.005Z,1.10
2017-08-21T16:44:51.888Z,1.35
2017-08-21T16:47:20.769Z,2.20
2017-08-21T16:49:49.649Z,1.35
2017-08-21T16:52:18.542Z,1.55
2017-08-21T16:54:47.424Z,1.37
2017-08-21T16:57:16.331Z,1.27
2017-08-21T16:59:45.904Z,1.10
2017-08-21T17:02:14.793Z,1.15
2017-08-21T17:04:43.793Z,1.40
2017-08-21T17:07:12.685Z,1.27
2017-08-21T17:21:05.383Z,1.30
2017-08-21T17:23:34.269Z,1.40
2017-08-21T17:28:57.386Z,1.60
2017-08-21T17:37:08.531Z,1.10
2017-08-21T17:39:37.439Z,1.45
2017-08-21T17:42:06.339Z,1.20
2017-08-21T17:44:35.242Z,1.45
2017-08-21T17:47:04.129Z,1.42
2017-08-21T17:49:33.013Z,1.42
2017-08-21T17:52:01.906Z,1.25
2017-08-21T17:54:30.788Z,1.67
2017-08-21T17:56:59.665Z,1.42
2017-08-21T17:59:28.526Z,1.62
2017-08-21T18:01:57.414Z,1.25
2017-08-21T18:04:26.292Z,1.55
2017-08-21T18:06:55.186Z,1.48
2017-08-21T18:09:24.072Z,1.77
2017-08-21T18:11:52.956Z,1.30
2017-08-21T18:14:21.852Z,1.50
2017-08-21T18:17:00.340Z,1.50
2017-08-21T18:19:31.791Z,1.87
2017-08-21T18:22:02.635Z,1.75
2017-08-21T18:27:15.218Z,1.83
2017-08-21T18:29:44.214Z,1.37
2017-08-21T18:32:19.328Z,1.48
2017-08-21T18:35:11.602Z,1.67
2017-08-21T18:37:45.874Z,1.55
2017-08-21T18:40:39.830Z,1.90
2017-08-21T18:57:42.106Z,1.90
2017-08-21T19:00:12.664Z,1.25
2017-08-21T19:02:41.592Z,1.80
2017-08-21T19:05:10.482Z,1.80
2017-08-21T19:07:39.374Z,2.03
2017-08-21T19:10:08.761Z,1.50
2017-08-21T19:12:37.673Z,1.62
2017-08-21T19:15:06.582Z,2.15
2017-08-21T19:20:14.674Z,1.87
2017-08-21T19:22:43.587Z,1.70
2017-08-21T19:25:12.852Z,1.87
2017-08-21T19:27:41.737Z,1.37
2017-08-21T19:35:58.238Z,2.10
2017-08-21T19:38:29.198Z,2.30
2017-08-21T19:40:58.092Z,1.50
2017-08-21T19:43:27.921Z,1.37
2017-08-21T19:45:56.832Z,1.98
2017-08-21T19:48:26.054Z,1.50
2017-08-21T19:50:54.982Z,1.77
2017-08-21T19:53:23.887Z,2.05
2017-08-21T19:55:53.977Z,1.50
2017-08-21T19:58:22.904Z,1.42
2017-08-21T20:00:51.873Z,1.70
2017-08-21T20:03:20.766Z,1.90
2017-08-21T20:05:49.662Z,1.90
2017-08-21T20:11:25.297Z,2.00
2017-08-21T20:14:08.761Z,1.40
2017-08-21T20:16:37.653Z,1.75
2017-08-21T20:19:06.595Z,2.12
2017-08-21T20:21:35.793Z,1.50
2017-08-21T20:24:06.504Z,1.33
2017-08-21T20:26:38.137Z,1.50
2017-08-21T20:29:21.424Z,1.73
2017-08-21T20:31:54.719Z,1.70
2017-08-21T20:34:33.726Z,1.80
2017-08-21T20:52:57.122Z,1.90
2017-08-21T20:55:26.016Z,1.92
2017-08-21T20:57:54.958Z,2.08
2017-08-21T21:00:24.509Z,1.77
2017-08-21T21:02:53.445Z,2.00
2017-08-21T21:05:22.340Z,1.95
2017-08-21T21:07:51.246Z,1.90
2017-08-21T21:10:20.125Z,2.00
2017-08-21T21:12:48.983Z,2.00
2017-08-21T21:15:17.901Z,1.92
2017-08-21T21:17:46.761Z,2.08
2017-08-21T21:20:15.657Z,1.80
2017-08-21T21:22:45.147Z,2.30
2017-08-21T21:25:14.040Z,1.98
2017-08-21T21:27:42.942Z,1.98
2017-08-21T21:30:11.803Z,1.62
2017-08-21T21:32:40.697Z,1.75
2017-08-21T21:35:09.583Z,2.40
2017-08-21T21:37:38.484Z,1.95
2017-08-21T21:40:07.391Z,2.08
2017-08-21T21:42:36.294Z,1.75
2017-08-21T21:45:05.187Z,2.12
2017-08-21T21:47:34.072Z,2.28
2017-08-21T21:50:02.959Z,2.30
2017-08-21T21:52:31.822Z,1.95
2017-08-21T21:55:00.723Z,1.83
2017-08-21T21:57:29.633Z,2.47
2017-08-21T21:59:58.530Z,2.10
2017-08-21T22:02:27.432Z,1.75
2017-08-21T22:04:56.286Z,1.73
2017-08-21T22:07:25.182Z,1.83
2017-08-21T22:09:54.043Z,1.73
2017-08-21T22:12:22.941Z,1.80
2017-08-21T22:14:51.819Z,1.52
2017-08-21T22:17:20.733Z,1.92
2017-08-21T22:19:49.653Z,1.62
2017-08-21T22:22:18.598Z,2.05
2017-08-21T22:24:47.488Z,1.95
2017-08-21T22:27:16.382Z,2.00
2017-08-21T22:29:45.278Z,1.90
2017-08-21T22:32:14.171Z,2.62
2017-08-21T22:34:43.056Z,2.50
2017-08-21T22:37:11.945Z,2.00
2017-08-21T22:39:40.832Z,1.85
2017-08-21T22:42:09.727Z,2.00
2017-08-21T22:44:38.609Z,1.95
2017-08-21T22:47:07.508Z,2.15
2017-08-21T22:49:36.414Z,1.95
2017-08-21T22:52:05.302Z,2.00
2017-08-21T22:54:34.209Z,2.15
2017-08-21T22:57:03.110Z,2.50
2017-08-21T22:59:31.993Z,3.22
2017-08-21T23:02:00.877Z,2.30
2017-08-21T23:04:29.716Z,2.40
2017-08-21T23:06:58.619Z,2.62
2017-08-21T23:09:27.521Z,2.30
2017-08-21T23:11:56.422Z,2.37
2017-08-21T23:14:25.326Z,2.35
2017-08-21T23:16:54.216Z,2.37
2017-08-21T23:19:23.777Z,2.55
2017-08-21T23:21:52.668Z,2.50
2017-08-21T23:24:21.545Z,3.55
2017-08-21T23:26:50.435Z,3.33
2017-08-21T23:29:20.086Z,2.90
2017-08-21T23:31:48.988Z,2.45
2017-08-21T23:34:17.862Z,3.60
2017-08-21T23:36:46.759Z,3.50
2017-08-21T23:39:15.640Z,3.30
2017-08-21T23:41:44.825Z,3.20
2017-08-21T23:44:13.714Z,3.33
2017-08-21T23:46:42.611Z,3.50
2017-08-21T23:49:11.506Z,3.62
2017-08-21T23:51:40.385Z,3.30
2017-08-21T23:54:09.256Z,3.60
2017-08-21T23:56:38.147Z,3.47
2017-08-21T23:59:07.043Z,3.85
